sensor_id;sensor_type;location;lat;lon;timestamp;temperature;humidity
40023;DHT22;25713;-35.352;149.036;2023-04-02T00:01:46;15.70;79.10
40023;DHT22;25713;-35.352;149.036;2023-04-02T00:04:17;15.80;79.70
40023;DHT22;25713;-35.352;149.036;2023-04-02T00:06:51;15.80;80.00
40023;DHT22;25713;-35.352;149.036;2023-04-02T00:09:30;15.80;79.70
40023;DHT22;25713;-35.352;149.036;2023-04-02T00:12:13;15.80;79.60
40023;DHT22;25713;-35.352;149.036;2023-04-02T00:14:50;15.80;79.80
40023;DHT22;25713;-35.352;149.036;2023-04-02T00:17:22;15.90;79.90
40023;DHT22;25713;-35.352;149.036;2023-04-02T00:19:55;15.90;79.70
40023;DHT22;25713;-35.352;149.036;2023-04-02T00:22:27;16.00;79.60
40023;DHT22;25713;-35.352;149.036;2023-04-02T00:24:59;16.00;79.40
40023;DHT22;25713;-35.352;149.036;2023-04-02T00:27:30;16.00;79.00
40023;DHT22;25713;-35.352;149.036;2023-04-02T00:30:02;16.00;79.30
40023;DHT22;25713;-35.352;149.036;2023-04-02T00:32:33;16.00;78.70
40023;DHT22;25713;-35.352;149.036;2023-04-02T00:35:04;16.00;79.30
40023;DHT22;25713;-35.352;149.036;2023-04-02T00:37:38;16.00;79.00
40023;DHT22;25713;-35.352;149.036;2023-04-02T00:40:13;16.00;79.50
40023;DHT22;25713;-35.352;149.036;2023-04-02T00:42:44;16.00;79.70
40023;DHT22;25713;-35.352;149.036;2023-04-02T00:45:21;16.10;79.50
40023;DHT22;25713;-35.352;149.036;2023-04-02T00:47:51;16.00;79.40
40023;DHT22;25713;-35.352;149.036;2023-04-02T00:50:25;16.00;79.00
40023;DHT22;25713;-35.352;149.036;2023-04-02T00:52:57;16.10;78.70
40023;DHT22;25713;-35.352;149.036;2023-04-02T00:55:33;16.10;78.50
40023;DHT22;25713;-35.352;149.036;2023-04-02T00:58:04;16.10;78.70
40023;DHT22;25713;-35.352;149.036;2023-04-02T01:00:49;16.00;80.10
40023;DHT22;25713;-35.352;149.036;2023-04-02T01:03:30;16.00;79.30
40023;DHT22;25713;-35.352;149.036;2023-04-02T01:06:03;16.00;79.20
40023;DHT22;25713;-35.352;149.036;2023-04-02T01:08:53;16.10;79.20
40023;DHT22;25713;-35.352;149.036;2023-04-02T01:11:35;16.10;80.50
40023;DHT22;25713;-35.352;149.036;2023-04-02T01:14:16;16.10;80.10
40023;DHT22;25713;-35.352;149.036;2023-04-02T01:16:54;16.10;80.00
40023;DHT22;25713;-35.352;149.036;2023-04-02T01:22:30;16.10;79.60
40023;DHT22;25713;-35.352;149.036;2023-04-02T01:25:05;16.10;79.40
40023;DHT22;25713;-35.352;149.036;2023-04-02T01:27:39;16.20;79.50
40023;DHT22;25713;-35.352;149.036;2023-04-02T01:30:14;16.20;79.50
40023;DHT22;25713;-35.352;149.036;2023-04-02T01:32:44;16.20;79.30
40023;DHT22;25713;-35.352;149.036;2023-04-02T01:35:14;16.20;79.50
40023;DHT22;25713;-35.352;149.036;2023-04-02T01:37:49;16.20;79.30
40023;DHT22;25713;-35.352;149.036;2023-04-02T01:40:31;16.20;79.60
40023;DHT22;25713;-35.352;149.036;2023-04-02T01:43:09;16.20;79.50
40023;DHT22;25713;-35.352;149.036;2023-04-02T01:45:46;16.20;79.80
40023;DHT22;25713;-35.352;149.036;2023-04-02T01:48:17;16.20;79.30
40023;DHT22;25713;-35.352;149.036;2023-04-02T01:50:49;16.30;79.50
40023;DHT22;25713;-35.352;149.036;2023-04-02T01:53:21;16.30;79.60
40023;DHT22;25713;-35.352;149.036;2023-04-02T01:55:53;16.30;79.90
40023;DHT22;25713;-35.352;149.036;2023-04-02T01:58:25;16.40;79.80
40023;DHT22;25713;-35.352;149.036;2023-04-02T02:01:00;16.40;80.00
40023;DHT22;25713;-35.352;149.036;2023-04-02T02:03:31;16.50;80.10
40023;DHT22;25713;-35.352;149.036;2023-04-02T02:06:02;16.50;80.30
40023;DHT22;25713;-35.352;149.036;2023-04-02T02:08:37;16.50;80.40
40023;DHT22;25713;-35.352;149.036;2023-04-02T02:11:14;16.50;80.60
40023;DHT22;25713;-35.352;149.036;2023-04-02T02:13:47;16.50;81.00
40023;DHT22;25713;-35.352;149.036;2023-04-02T02:16:19;16.50;80.90
40023;DHT22;25713;-35.352;149.036;2023-04-02T02:18:50;16.50;81.20
40023;DHT22;25713;-35.352;149.036;2023-04-02T02:21:31;16.50;81.80
40023;DHT22;25713;-35.352;149.036;2023-04-02T02:24:04;16.50;82.20
40023;DHT22;25713;-35.352;149.036;2023-04-02T02:26:34;16.50;82.00
40023;DHT22;25713;-35.352;149.036;2023-04-02T02:29:08;16.50;82.00
40023;DHT22;25713;-35.352;149.036;2023-04-02T02:31:44;16.50;82.20
40023;DHT22;25713;-35.352;149.036;2023-04-02T02:34:19;16.50;82.10
40023;DHT22;25713;-35.352;149.036;2023-04-02T02:36:54;16.50;81.60
40023;DHT22;25713;-35.352;149.036;2023-04-02T02:39:25;16.50;81.20
40023;DHT22;25713;-35.352;149.036;2023-04-02T02:42:01;16.60;81.20
40023;DHT22;25713;-35.352;149.036;2023-04-02T02:44:35;16.60;81.10
40023;DHT22;25713;-35.352;149.036;2023-04-02T02:47:12;16.60;81.10
40023;DHT22;25713;-35.352;149.036;2023-04-02T02:49:44;16.70;81.20
40023;DHT22;25713;-35.352;149.036;2023-04-02T02:52:16;16.70;81.00
40023;DHT22;25713;-35.352;149.036;2023-04-02T02:54:55;16.80;81.00
40023;DHT22;25713;-35.352;149.036;2023-04-02T02:57:30;16.80;81.10
40023;DHT22;25713;-35.352;149.036;2023-04-02T03:00:02;16.80;81.50
40023;DHT22;25713;-35.352;149.036;2023-04-02T03:02:36;16.90;81.30
40023;DHT22;25713;-35.352;149.036;2023-04-02T03:05:09;16.90;81.90
40023;DHT22;25713;-35.352;149.036;2023-04-02T03:07:44;17.00;81.90
40023;DHT22;25713;-35.352;149.036;2023-04-02T03:10:16;17.00;81.40
40023;DHT22;25713;-35.352;149.036;2023-04-02T03:12:53;17.00;81.70
40023;DHT22;25713;-35.352;149.036;2023-04-02T03:15:29;17.10;81.60
40023;DHT22;25713;-35.352;149.036;2023-04-02T03:18:06;17.10;81.10
40023;DHT22;25713;-35.352;149.036;2023-04-02T03:20:38;17.30;81.00
40023;DHT22;25713;-35.352;149.036;2023-04-02T03:23:15;17.30;80.70
40023;DHT22;25713;-35.352;149.036;2023-04-02T03:25:49;17.40;80.40
40023;DHT22;25713;-35.352;149.036;2023-04-02T03:28:22;17.40;80.00
40023;DHT22;25713;-35.352;149.036;2023-04-02T03:30:56;17.40;79.70
40023;DHT22;25713;-35.352;149.036;2023-04-02T03:33:32;17.40;79.80
40023;DHT22;25713;-35.352;149.036;2023-04-02T03:36:04;17.30;79.90
40023;DHT22;25713;-35.352;149.036;2023-04-02T03:38:42;17.30;80.40
40023;DHT22;25713;-35.352;149.036;2023-04-02T03:41:18;17.30;81.10
40023;DHT22;25713;-35.352;149.036;2023-04-02T03:43:51;17.30;81.30
40023;DHT22;25713;-35.352;149.036;2023-04-02T03:46:28;17.30;81.90
40023;DHT22;25713;-35.352;149.036;2023-04-02T03:49:07;17.30;81.70
40023;DHT22;25713;-35.352;149.036;2023-04-02T03:51:41;17.30;82.00
40023;DHT22;25713;-35.352;149.036;2023-04-02T03:54:14;17.30;81.90
40023;DHT22;25713;-35.352;149.036;2023-04-02T03:56:46;17.30;81.70
40023;DHT22;25713;-35.352;149.036;2023-04-02T03:59:28;17.30;82.10
40023;DHT22;25713;-35.352;149.036;2023-04-02T04:02:06;17.30;81.90
40023;DHT22;25713;-35.352;149.036;2023-04-02T04:04:44;17.30;82.50
40023;DHT22;25713;-35.352;149.036;2023-04-02T04:07:26;17.40;82.70
40023;DHT22;25713;-35.352;149.036;2023-04-02T04:09:57;17.40;82.90
40023;DHT22;25713;-35.352;149.036;2023-04-02T04:12:31;17.40;83.20
40023;DHT22;25713;-35.352;149.036;2023-04-02T04:15:08;17.40;83.40
40023;DHT22;25713;-35.352;149.036;2023-04-02T04:17:47;17.40;83.30
40023;DHT22;25713;-35.352;149.036;2023-04-02T04:20:26;17.40;83.30
40023;DHT22;25713;-35.352;149.036;2023-04-02T04:23:09;17.40;82.90
40023;DHT22;25713;-35.352;149.036;2023-04-02T04:25:40;17.30;83.00
40023;DHT22;25713;-35.352;149.036;2023-04-02T04:28:20;17.40;83.30
40023;DHT22;25713;-35.352;149.036;2023-04-02T04:30:57;17.40;82.30
40023;DHT22;25713;-35.352;149.036;2023-04-02T04:33:32;17.50;82.10
40023;DHT22;25713;-35.352;149.036;2023-04-02T04:36:19;17.50;81.90
40023;DHT22;25713;-35.352;149.036;2023-04-02T04:38:51;17.60;82.00
40023;DHT22;25713;-35.352;149.036;2023-04-02T04:41:24;17.70;81.40
40023;DHT22;25713;-35.352;149.036;2023-04-02T04:43:58;17.70;81.00
40023;DHT22;25713;-35.352;149.036;2023-04-02T04:46:31;17.70;81.00
40023;DHT22;25713;-35.352;149.036;2023-04-02T04:49:10;17.70;81.30
40023;DHT22;25713;-35.352;149.036;2023-04-02T04:51:49;17.70;82.30
40023;DHT22;25713;-35.352;149.036;2023-04-02T04:54:23;17.60;82.00
40023;DHT22;25713;-35.352;149.036;2023-04-02T04:56:58;17.60;82.30
40023;DHT22;25713;-35.352;149.036;2023-04-02T04:59:30;17.50;82.40
40023;DHT22;25713;-35.352;149.036;2023-04-02T05:02:06;17.50;82.70
40023;DHT22;25713;-35.352;149.036;2023-04-02T05:04:39;17.50;83.30
40023;DHT22;25713;-35.352;149.036;2023-04-02T05:07:17;17.50;83.60
40023;DHT22;25713;-35.352;149.036;2023-04-02T05:09:54;17.50;83.90
40023;DHT22;25713;-35.352;149.036;2023-04-02T05:12:31;17.50;84.00
40023;DHT22;25713;-35.352;149.036;2023-04-02T05:15:09;17.50;82.90
40023;DHT22;25713;-35.352;149.036;2023-04-02T05:17:46;17.50;82.50
40023;DHT22;25713;-35.352;149.036;2023-04-02T05:20:24;17.50;82.30
40023;DHT22;25713;-35.352;149.036;2023-04-02T05:23:03;17.50;82.90
40023;DHT22;25713;-35.352;149.036;2023-04-02T05:25:34;17.50;82.90
40023;DHT22;25713;-35.352;149.036;2023-04-02T05:28:06;17.50;82.90
40023;DHT22;25713;-35.352;149.036;2023-04-02T05:30:45;17.50;82.70
40023;DHT22;25713;-35.352;149.036;2023-04-02T05:33:25;17.50;81.10
40023;DHT22;25713;-35.352;149.036;2023-04-02T05:35:58;17.50;83.20
40023;DHT22;25713;-35.352;149.036;2023-04-02T05:38:33;17.50;83.60
40023;DHT22;25713;-35.352;149.036;2023-04-02T05:41:06;17.50;83.70
40023;DHT22;25713;-35.352;149.036;2023-04-02T05:43:37;17.50;84.00
40023;DHT22;25713;-35.352;149.036;2023-04-02T05:46:15;17.50;83.70
40023;DHT22;25713;-35.352;149.036;2023-04-02T05:48:50;17.50;83.40
40023;DHT22;25713;-35.352;149.036;2023-04-02T05:51:25;17.50;83.60
40023;DHT22;25713;-35.352;149.036;2023-04-02T05:54:02;17.50;83.30
40023;DHT22;25713;-35.352;149.036;2023-04-02T05:56:35;17.50;83.10
40023;DHT22;25713;-35.352;149.036;2023-04-02T05:59:10;17.50;82.90
40023;DHT22;25713;-35.352;149.036;2023-04-02T06:01:42;17.50;83.30
40023;DHT22;25713;-35.352;149.036;2023-04-02T06:04:21;17.50;83.60
40023;DHT22;25713;-35.352;149.036;2023-04-02T06:06:57;17.50;83.80
40023;DHT22;25713;-35.352;149.036;2023-04-02T06:09:40;17.50;84.10
40023;DHT22;25713;-35.352;149.036;2023-04-02T06:12:22;17.50;83.90
40023;DHT22;25713;-35.352;149.036;2023-04-02T06:14:55;17.50;83.80
40023;DHT22;25713;-35.352;149.036;2023-04-02T06:17:28;17.50;84.00
40023;DHT22;25713;-35.352;149.036;2023-04-02T06:20:00;17.50;84.10
40023;DHT22;25713;-35.352;149.036;2023-04-02T06:22:34;17.50;84.50
40023;DHT22;25713;-35.352;149.036;2023-04-02T06:25:12;17.50;85.00
40023;DHT22;25713;-35.352;149.036;2023-04-02T06:27:48;17.50;85.20
40023;DHT22;25713;-35.352;149.036;2023-04-02T06:30:23;17.50;85.30
40023;DHT22;25713;-35.352;149.036;2023-04-02T06:32:54;17.50;85.20
40023;DHT22;25713;-35.352;149.036;2023-04-02T06:35:24;17.50;85.00
40023;DHT22;25713;-35.352;149.036;2023-04-02T06:38:02;17.50;85.30
40023;DHT22;25713;-35.352;149.036;2023-04-02T06:40:40;17.50;85.50
40023;DHT22;25713;-35.352;149.036;2023-04-02T06:43:33;17.50;85.80
40023;DHT22;25713;-35.352;149.036;2023-04-02T06:46:19;17.50;86.00
40023;DHT22;25713;-35.352;149.036;2023-04-02T06:49:11;17.60;86.70
40023;DHT22;25713;-35.352;149.036;2023-04-02T06:51:43;17.50;85.90
40023;DHT22;25713;-35.352;149.036;2023-04-02T06:54:15;17.50;85.50
40023;DHT22;25713;-35.352;149.036;2023-04-02T06:56:49;17.60;85.70
40023;DHT22;25713;-35.352;149.036;2023-04-02T06:59:26;17.60;85.60
40023;DHT22;25713;-35.352;149.036;2023-04-02T07:01:59;17.50;84.90
40023;DHT22;25713;-35.352;149.036;2023-04-02T07:04:28;17.50;85.20
40023;DHT22;25713;-35.352;149.036;2023-04-02T07:06:58;17.50;85.30
40023;DHT22;25713;-35.352;149.036;2023-04-02T07:09:31;17.50;85.80
40023;DHT22;25713;-35.352;149.036;2023-04-02T07:12:11;17.50;84.70
40023;DHT22;25713;-35.352;149.036;2023-04-02T07:14:40;17.50;84.10
40023;DHT22;25713;-35.352;149.036;2023-04-02T07:17:13;17.40;84.70
40023;DHT22;25713;-35.352;149.036;2023-04-02T07:19:44;17.50;84.70
40023;DHT22;25713;-35.352;149.036;2023-04-02T07:22:14;17.40;84.30
40023;DHT22;25713;-35.352;149.036;2023-04-02T07:24:45;17.40;84.70
40023;DHT22;25713;-35.352;149.036;2023-04-02T07:27:16;17.40;85.60
40023;DHT22;25713;-35.352;149.036;2023-04-02T07:29:46;17.40;86.00
40023;DHT22;25713;-35.352;149.036;2023-04-02T07:32:15;17.40;85.50
40023;DHT22;25713;-35.352;149.036;2023-04-02T07:34:44;17.40;85.00
40023;DHT22;25713;-35.352;149.036;2023-04-02T07:37:14;17.40;85.90
40023;DHT22;25713;-35.352;149.036;2023-04-02T07:39:44;17.40;86.10
40023;DHT22;25713;-35.352;149.036;2023-04-02T07:42:16;17.40;85.80
40023;DHT22;25713;-35.352;149.036;2023-04-02T07:44:45;17.40;85.90
40023;DHT22;25713;-35.352;149.036;2023-04-02T07:47:15;17.40;85.50
40023;DHT22;25713;-35.352;149.036;2023-04-02T07:49:45;17.30;86.20
40023;DHT22;25713;-35.352;149.036;2023-04-02T07:52:14;17.30;86.40
40023;DHT22;25713;-35.352;149.036;2023-04-02T07:54:44;17.30;86.70
40023;DHT22;25713;-35.352;149.036;2023-04-02T07:57:15;17.30;86.10
40023;DHT22;25713;-35.352;149.036;2023-04-02T07:59:45;17.30;85.90
40023;DHT22;25713;-35.352;149.036;2023-04-02T08:02:21;17.30;86.20
40023;DHT22;25713;-35.352;149.036;2023-04-02T08:04:50;17.30;85.30
40023;DHT22;25713;-35.352;149.036;2023-04-02T08:07:20;17.30;85.50
40023;DHT22;25713;-35.352;149.036;2023-04-02T08:09:49;17.30;85.90
40023;DHT22;25713;-35.352;149.036;2023-04-02T08:12:20;17.30;85.60
40023;DHT22;25713;-35.352;149.036;2023-04-02T08:14:50;17.30;86.30
40023;DHT22;25713;-35.352;149.036;2023-04-02T08:17:20;17.20;86.40
40023;DHT22;25713;-35.352;149.036;2023-04-02T08:19:49;17.20;86.60
40023;DHT22;25713;-35.352;149.036;2023-04-02T08:22:18;17.20;86.30
40023;DHT22;25713;-35.352;149.036;2023-04-02T08:24:48;17.20;86.70
40023;DHT22;25713;-35.352;149.036;2023-04-02T08:27:19;17.30;86.50
40023;DHT22;25713;-35.352;149.036;2023-04-02T08:29:48;17.30;86.60
40023;DHT22;25713;-35.352;149.036;2023-04-02T08:32:18;17.30;86.50
40023;DHT22;25713;-35.352;149.036;2023-04-02T08:34:48;17.30;87.00
40023;DHT22;25713;-35.352;149.036;2023-04-02T08:37:17;17.30;86.90
40023;DHT22;25713;-35.352;149.036;2023-04-02T08:39:47;17.30;86.80
40023;DHT22;25713;-35.352;149.036;2023-04-02T08:42:24;17.30;86.80
40023;DHT22;25713;-35.352;149.036;2023-04-02T08:45:05;17.30;87.20
40023;DHT22;25713;-35.352;149.036;2023-04-02T08:47:38;17.30;87.20
40023;DHT22;25713;-35.352;149.036;2023-04-02T08:50:14;17.30;87.70
40023;DHT22;25713;-35.352;149.036;2023-04-02T08:52:44;17.30;87.70
40023;DHT22;25713;-35.352;149.036;2023-04-02T08:55:19;17.30;87.40
40023;DHT22;25713;-35.352;149.036;2023-04-02T08:58:00;17.40;87.50
40023;DHT22;25713;-35.352;149.036;2023-04-02T09:00:36;17.30;87.80
40023;DHT22;25713;-35.352;149.036;2023-04-02T09:03:09;17.30;87.50
40023;DHT22;25713;-35.352;149.036;2023-04-02T09:05:40;17.30;88.00
40023;DHT22;25713;-35.352;149.036;2023-04-02T09:08:17;17.30;87.90
40023;DHT22;25713;-35.352;149.036;2023-04-02T09:10:52;17.30;88.20
40023;DHT22;25713;-35.352;149.036;2023-04-02T09:13:28;17.30;87.80
40023;DHT22;25713;-35.352;149.036;2023-04-02T09:16:01;17.30;87.60
40023;DHT22;25713;-35.352;149.036;2023-04-02T09:18:32;17.20;88.00
40023;DHT22;25713;-35.352;149.036;2023-04-02T09:21:14;17.20;87.30
40023;DHT22;25713;-35.352;149.036;2023-04-02T09:23:46;17.20;87.30
40023;DHT22;25713;-35.352;149.036;2023-04-02T09:26:21;17.10;87.50
40023;DHT22;25713;-35.352;149.036;2023-04-02T09:28:58;17.00;87.20
40023;DHT22;25713;-35.352;149.036;2023-04-02T09:31:31;17.00;87.30
40023;DHT22;25713;-35.352;149.036;2023-04-02T09:34:03;17.00;87.30
40023;DHT22;25713;-35.352;149.036;2023-04-02T09:36:52;16.90;87.20
40023;DHT22;25713;-35.352;149.036;2023-04-02T09:39:23;17.00;87.40
40023;DHT22;25713;-35.352;149.036;2023-04-02T09:41:53;16.90;87.40
40023;DHT22;25713;-35.352;149.036;2023-04-02T09:44:26;16.90;87.30
40023;DHT22;25713;-35.352;149.036;2023-04-02T09:46:57;17.00;87.20
40023;DHT22;25713;-35.352;149.036;2023-04-02T09:49:28;17.00;87.30
40023;DHT22;25713;-35.352;149.036;2023-04-02T09:55:25;17.00;87.20
40023;DHT22;25713;-35.352;149.036;2023-04-02T09:58:12;17.10;86.90
40023;DHT22;25713;-35.352;149.036;2023-04-02T10:00:50;17.10;87.00
40023;DHT22;25713;-35.352;149.036;2023-04-02T10:03:23;17.10;86.80
40023;DHT22;25713;-35.352;149.036;2023-04-02T10:06:08;17.10;86.50
40023;DHT22;25713;-35.352;149.036;2023-04-02T10:08:39;17.10;87.50
40023;DHT22;25713;-35.352;149.036;2023-04-02T10:11:11;17.10;87.00
40023;DHT22;25713;-35.352;149.036;2023-04-02T10:13:47;17.10;87.10
40023;DHT22;25713;-35.352;149.036;2023-04-02T10:16:23;17.10;86.50
40023;DHT22;25713;-35.352;149.036;2023-04-02T10:18:56;17.10;86.40
40023;DHT22;25713;-35.352;149.036;2023-04-02T10:21:27;17.10;86.60
40023;DHT22;25713;-35.352;149.036;2023-04-02T10:23:57;17.10;86.80
40023;DHT22;25713;-35.352;149.036;2023-04-02T10:26:46;17.10;86.70
40023;DHT22;25713;-35.352;149.036;2023-04-02T10:29:47;17.10;86.60
40023;DHT22;25713;-35.352;149.036;2023-04-02T10:32:23;17.10;86.70
40023;DHT22;25713;-35.352;149.036;2023-04-02T10:34:57;17.10;86.30
40023;DHT22;25713;-35.352;149.036;2023-04-02T10:38:00;17.10;86.40
40023;DHT22;25713;-35.352;149.036;2023-04-02T10:40:35;17.10;86.20
40023;DHT22;25713;-35.352;149.036;2023-04-02T10:46:07;17.10;86.10
40023;DHT22;25713;-35.352;149.036;2023-04-02T10:48:48;17.10;86.00
40023;DHT22;25713;-35.352;149.036;2023-04-02T10:51:30;17.10;85.60
40023;DHT22;25713;-35.352;149.036;2023-04-02T10:54:06;17.20;86.50
40023;DHT22;25713;-35.352;149.036;2023-04-02T10:56:41;17.20;86.00
40023;DHT22;25713;-35.352;149.036;2023-04-02T10:59:16;17.20;86.60
40023;DHT22;25713;-35.352;149.036;2023-04-02T11:01:47;17.20;86.80
40023;DHT22;25713;-35.352;149.036;2023-04-02T11:04:22;17.20;86.60
40023;DHT22;25713;-35.352;149.036;2023-04-02T11:06:56;17.20;86.10
40023;DHT22;25713;-35.352;149.036;2023-04-02T11:09:29;17.20;85.90
40023;DHT22;25713;-35.352;149.036;2023-04-02T11:12:01;17.20;85.50
40023;DHT22;25713;-35.352;149.036;2023-04-02T11:14:33;17.20;85.90
40023;DHT22;25713;-35.352;149.036;2023-04-02T11:17:02;17.20;85.60
40023;DHT22;25713;-35.352;149.036;2023-04-02T11:19:34;17.20;85.50
40023;DHT22;25713;-35.352;149.036;2023-04-02T11:22:05;17.20;85.70
40023;DHT22;25713;-35.352;149.036;2023-04-02T11:24:45;17.20;85.40
40023;DHT22;25713;-35.352;149.036;2023-04-02T11:27:19;17.10;85.40
40023;DHT22;25713;-35.352;149.036;2023-04-02T11:29:50;17.10;85.30
40023;DHT22;25713;-35.352;149.036;2023-04-02T11:32:29;17.10;85.70
40023;DHT22;25713;-35.352;149.036;2023-04-02T11:37:54;17.10;85.30
40023;DHT22;25713;-35.352;149.036;2023-04-02T11:40:41;17.10;85.50
40023;DHT22;25713;-35.352;149.036;2023-04-02T11:46:43;17.10;85.20
40023;DHT22;25713;-35.352;149.036;2023-04-02T11:49:34;17.10;85.40
40023;DHT22;25713;-35.352;149.036;2023-04-02T11:52:20;17.10;85.60
40023;DHT22;25713;-35.352;149.036;2023-04-02T11:55:02;17.10;85.40
40023;DHT22;25713;-35.352;149.036;2023-04-02T12:03:36;17.10;85.50
40023;DHT22;25713;-35.352;149.036;2023-04-02T12:06:18;17.10;85.40
40023;DHT22;25713;-35.352;149.036;2023-04-02T12:08:59;17.10;85.20
40023;DHT22;25713;-35.352;149.036;2023-04-02T12:11:35;17.10;85.00
40023;DHT22;25713;-35.352;149.036;2023-04-02T12:14:32;17.10;84.70
40023;DHT22;25713;-35.352;149.036;2023-04-02T12:17:17;17.10;84.90
40023;DHT22;25713;-35.352;149.036;2023-04-02T12:19:49;17.10;85.10
40023;DHT22;25713;-35.352;149.036;2023-04-02T12:22:22;17.10;84.90
40023;DHT22;25713;-35.352;149.036;2023-04-02T12:24:55;17.10;84.70
40023;DHT22;25713;-35.352;149.036;2023-04-02T12:27:27;17.10;84.80
40023;DHT22;25713;-35.352;149.036;2023-04-02T12:30:12;17.10;84.70
40023;DHT22;25713;-35.352;149.036;2023-04-02T12:32:41;17.10;84.60
40023;DHT22;25713;-35.352;149.036;2023-04-02T12:35:27;17.10;84.80
40023;DHT22;25713;-35.352;149.036;2023-04-02T12:37:57;17.10;84.90
40023;DHT22;25713;-35.352;149.036;2023-04-02T12:40:28;17.10;84.70
40023;DHT22;25713;-35.352;149.036;2023-04-02T12:42:58;17.10;84.70
40023;DHT22;25713;-35.352;149.036;2023-04-02T12:45:28;17.10;85.00
40023;DHT22;25713;-35.352;149.036;2023-04-02T12:48:03;17.10;84.80
40023;DHT22;25713;-35.352;149.036;2023-04-02T12:50:33;17.10;85.00
40023;DHT22;25713;-35.352;149.036;2023-04-02T12:53:03;17.10;85.00
40023;DHT22;25713;-35.352;149.036;2023-04-02T12:55:46;17.10;84.90
40023;DHT22;25713;-35.352;149.036;2023-04-02T12:58:25;17.10;85.20
40023;DHT22;25713;-35.352;149.036;2023-04-02T13:01:13;17.10;84.80
40023;DHT22;25713;-35.352;149.036;2023-04-02T13:03:43;17.10;84.70
40023;DHT22;25713;-35.352;149.036;2023-04-02T13:06:21;17.10;84.90
40023;DHT22;25713;-35.352;149.036;2023-04-02T13:08:51;17.10;85.30
40023;DHT22;25713;-35.352;149.036;2023-04-02T13:11:32;17.10;85.40
40023;DHT22;25713;-35.352;149.036;2023-04-02T13:14:03;17.10;85.20
40023;DHT22;25713;-35.352;149.036;2023-04-02T13:16:36;17.10;85.20
40023;DHT22;25713;-35.352;149.036;2023-04-02T13:19:17;17.10;85.00
40023;DHT22;25713;-35.352;149.036;2023-04-02T13:21:49;17.10;85.00
40023;DHT22;25713;-35.352;149.036;2023-04-02T13:24:18;17.10;85.30
40023;DHT22;25713;-35.352;149.036;2023-04-02T13:26:52;17.10;85.60
40023;DHT22;25713;-35.352;149.036;2023-04-02T13:29:27;17.10;85.60
40023;DHT22;25713;-35.352;149.036;2023-04-02T13:31:58;17.10;85.60
40023;DHT22;25713;-35.352;149.036;2023-04-02T13:34:28;17.10;85.40
40023;DHT22;25713;-35.352;149.036;2023-04-02T13:36:59;17.10;85.40
40023;DHT22;25713;-35.352;149.036;2023-04-02T13:39:29;17.10;85.40
40023;DHT22;25713;-35.352;149.036;2023-04-02T13:42:01;17.10;85.70
40023;DHT22;25713;-35.352;149.036;2023-04-02T13:44:32;17.10;85.40
40023;DHT22;25713;-35.352;149.036;2023-04-02T13:47:02;17.10;85.60
40023;DHT22;25713;-35.352;149.036;2023-04-02T13:49:32;17.10;85.40
40023;DHT22;25713;-35.352;149.036;2023-04-02T13:52:02;17.10;85.80
40023;DHT22;25713;-35.352;149.036;2023-04-02T13:54:35;17.00;85.70
40023;DHT22;25713;-35.352;149.036;2023-04-02T13:57:07;17.00;85.80
40023;DHT22;25713;-35.352;149.036;2023-04-02T13:59:36;17.00;85.40
40023;DHT22;25713;-35.352;149.036;2023-04-02T14:02:09;17.00;85.40
40023;DHT22;25713;-35.352;149.036;2023-04-02T14:04:43;17.00;85.50
40023;DHT22;25713;-35.352;149.036;2023-04-02T14:07:31;17.00;85.10
40023;DHT22;25713;-35.352;149.036;2023-04-02T14:10:15;17.00;85.10
40023;DHT22;25713;-35.352;149.036;2023-04-02T14:13:00;17.00;85.70
40023;DHT22;25713;-35.352;149.036;2023-04-02T14:15:46;17.00;85.00
40023;DHT22;25713;-35.352;149.036;2023-04-02T14:18:32;17.00;85.20
40023;DHT22;25713;-35.352;149.036;2023-04-02T14:21:13;17.00;85.20
40023;DHT22;25713;-35.352;149.036;2023-04-02T14:23:53;17.00;85.10
40023;DHT22;25713;-35.352;149.036;2023-04-02T14:26:30;17.00;85.00
40023;DHT22;25713;-35.352;149.036;2023-04-02T14:29:07;17.00;84.90
40023;DHT22;25713;-35.352;149.036;2023-04-02T14:31:42;17.00;84.80
40023;DHT22;25713;-35.352;149.036;2023-04-02T14:34:18;17.00;85.50
40023;DHT22;25713;-35.352;149.036;2023-04-02T14:36:55;17.00;85.00
40023;DHT22;25713;-35.352;149.036;2023-04-02T14:39:36;17.00;85.30
40023;DHT22;25713;-35.352;149.036;2023-04-02T14:42:11;17.00;85.10
40023;DHT22;25713;-35.352;149.036;2023-04-02T14:44:47;17.00;85.20
40023;DHT22;25713;-35.352;149.036;2023-04-02T14:47:22;17.00;84.90
40023;DHT22;25713;-35.352;149.036;2023-04-02T15:51:57;16.60;85.90
40023;DHT22;25713;-35.352;149.036;2023-04-02T15:54:36;16.60;86.80
40023;DHT22;25713;-35.352;149.036;2023-04-02T15:57:21;16.60;86.90
40023;DHT22;25713;-35.352;149.036;2023-04-02T16:03:04;16.60;87.00
40023;DHT22;25713;-35.352;149.036;2023-04-02T16:05:41;16.70;86.70
40023;DHT22;25713;-35.352;149.036;2023-04-02T16:08:35;16.70;86.80
40023;DHT22;25713;-35.352;149.036;2023-04-02T16:11:12;16.60;87.00
40023;DHT22;25713;-35.352;149.036;2023-04-02T16:13:42;16.70;87.00
40023;DHT22;25713;-35.352;149.036;2023-04-02T16:16:16;16.70;87.40
40023;DHT22;25713;-35.352;149.036;2023-04-02T16:18:52;16.70;86.60
40023;DHT22;25713;-35.352;149.036;2023-04-02T16:21:24;16.80;86.50
40023;DHT22;25713;-35.352;149.036;2023-04-02T16:23:57;16.80;86.90
40023;DHT22;25713;-35.352;149.036;2023-04-02T16:26:37;16.80;86.70
40023;DHT22;25713;-35.352;149.036;2023-04-02T16:32:14;16.80;85.80
40023;DHT22;25713;-35.352;149.036;2023-04-02T16:34:51;16.80;86.30
40023;DHT22;25713;-35.352;149.036;2023-04-02T16:37:26;16.80;86.20
40023;DHT22;25713;-35.352;149.036;2023-04-02T16:40:07;16.80;85.90
40023;DHT22;25713;-35.352;149.036;2023-04-02T16:42:43;16.80;85.80
40023;DHT22;25713;-35.352;149.036;2023-04-02T16:45:25;16.80;86.10
40023;DHT22;25713;-35.352;149.036;2023-04-02T16:48:06;16.80;86.10
40023;DHT22;25713;-35.352;149.036;2023-04-02T16:50:43;16.80;86.20
40023;DHT22;25713;-35.352;149.036;2023-04-02T16:53:23;16.80;86.80
40023;DHT22;25713;-35.352;149.036;2023-04-02T16:56:11;16.80;86.20
40023;DHT22;25713;-35.352;149.036;2023-04-02T16:58:49;16.80;86.20
40023;DHT22;25713;-35.352;149.036;2023-04-02T17:01:26;16.80;86.10
40023;DHT22;25713;-35.352;149.036;2023-04-02T17:04:05;16.80;86.30
40023;DHT22;25713;-35.352;149.036;2023-04-02T17:06:40;16.80;86.40